Time;durP1;ratioP1;P1;durP2;ratioP2;P2;SDS_P1;SDS_P2;PMS_P1;PMS_P2;Temp;Humidity;BMP_temperature;BMP_pressure;BME280_temperature;BME280_humidity;BME280_pressure;Samples;Min_cycle;Max_cycle;Signal;HPM_P1;HPM_P2
2023/12/03 00:02:12;;;;;;;868.22;796.50;;;-0.90;99.90;;;;;;6247783;22;20331;-92
2023/12/03 00:04:42;;;;;;;997.47;904.00;;;0.00;99.90;;;;;;6273545;22;20020;-92
2023/12/03 00:07:08;;;;;;;937.00;854.70;;;0.40;99.90;;;;;;6248045;22;20018;-92
2023/12/03 00:09:36;;;;;;;901.00;825.10;;;-0.20;99.90;;;;;;6248164;22;20046;-91
2023/12/03 00:12:05;;;;;;;923.03;843.47;;;-0.10;99.90;;;;;;6273642;22;20015;-92
2023/12/03 00:14:31;;;;;;;941.85;858.97;;;-0.90;99.90;;;;;;6247507;22;20026;-91
2023/12/03 00:16:56;;;;;;;1077.00;966.50;;;-0.90;99.90;;;;;;6273402;22;20055;-91
2023/12/03 00:19:24;;;;;;;1102.40;983.67;;;-0.70;99.90;;;;;;6273283;22;20099;-92
2023/12/03 00:21:50;;;;;;;952.53;868.90;;;-0.50;99.90;;;;;;6273648;22;20065;-91
2023/12/03 00:24:16;;;;;;;1063.97;956.75;;;-0.30;99.90;;;;;;6247970;22;20016;-91
2023/12/03 00:26:42;;;;;;;1031.03;929.83;;;0.10;99.90;;;;;;6247860;22;20023;-91
2023/12/03 00:29:08;;;;;;;1006.13;910.85;;;-0.10;99.90;;;;;;6273136;22;20024;-91
2023/12/03 00:31:34;;;;;;;862.67;792.20;;;-1.10;99.90;;;;;;6221996;22;20103;-91
2023/12/03 00:34:02;;;;;;;896.40;819.08;;;-0.50;99.90;;;;;;6222979;22;20024;-90
2023/12/03 00:36:28;;;;;;;942.90;856.90;;;-0.30;99.90;;;;;;6221382;22;20019;-91
2023/12/03 00:38:54;;;;;;;1025.88;923.85;;;-0.50;99.90;;;;;;6221943;22;20027;-91
2023/12/03 00:41:20;;;;;;;1084.10;968.25;;;-0.70;99.90;;;;;;6222115;22;20022;-91
2023/12/03 00:43:45;;;;;;;939.03;856.90;;;-0.30;99.90;;;;;;6221208;22;20023;-90
2023/12/03 00:46:11;;;;;;;1027.47;926.63;;;-1.50;99.90;;;;;;6222272;22;20058;-90
2023/12/03 00:48:38;;;;;;;965.22;877.60;;;-1.50;99.90;;;;;;6221368;22;20046;-90
2023/12/03 00:51:04;;;;;;;918.13;838.67;;;-1.40;99.90;;;;;;6222226;22;20027;-90
2023/12/03 00:53:30;;;;;;;935.00;853.40;;;-1.50;99.90;;;;;;6221823;22;20015;-90
2023/12/03 00:55:56;;;;;;;1052.55;943.05;;;-1.00;99.90;;;;;;6221545;22;20022;-90
2023/12/03 00:58:22;;;;;;;1001.75;906.30;;;-0.90;99.90;;;;;;6221941;22;20038;-91
2023/12/03 01:00:47;;;;;;;1059.88;951.72;;;-1.60;99.90;;;;;;6221106;22;20011;-90
2023/12/03 01:03:13;;;;;;;1003.22;907.72;;;-0.80;99.90;;;;;;6222367;22;20022;-89
2023/12/03 01:05:39;;;;;;;1003.95;907.03;;;-0.40;99.90;;;;;;6221581;22;20015;-90
2023/12/03 01:08:04;;;;;;;1026.05;926.10;;;-1.80;99.90;;;;;;6221230;22;20039;-90
2023/12/03 01:10:33;;;;;;;975.17;886.58;;;-1.20;99.90;;;;;;6221528;22;20467;-90
2023/12/03 01:12:59;;;;;;;1014.70;915.78;;;-1.90;99.90;;;;;;6220978;22;20008;-90
2023/12/03 01:15:25;;;;;;;1077.25;967.15;;;-0.80;99.90;;;;;;6221569;22;20470;-90
2023/12/03 01:17:50;;;;;;;988.15;895.80;;;-0.50;99.90;;;;;;6221094;22;20016;-89
2023/12/03 01:20:18;;;;;;;1067.60;957.70;;;-1.70;99.90;;;;;;6222401;22;20032;-89
2023/12/03 01:22:43;;;;;;;971.58;881.05;;;-1.40;99.90;;;;;;6221760;22;20019;-90
2023/12/03 01:25:10;;;;;;;983.42;891.10;;;-0.60;99.90;;;;;;6221534;22;20026;-90
2023/12/03 01:27:36;;;;;;;1016.90;917.10;;;-0.60;99.90;;;;;;6221274;22;20047;-89
2023/12/03 01:30:01;;;;;;;990.83;898.58;;;-1.80;99.90;;;;;;6235089;22;20011;-90
2023/12/03 01:32:27;;;;;;;937.38;853.13;;;-0.70;99.90;;;;;;6251593;22;20072;-90
2023/12/03 01:34:53;;;;;;;1045.13;937.60;;;-1.80;99.90;;;;;;6277921;22;20097;-90
2023/12/03 01:37:19;;;;;;;1002.53;906.83;;;-1.10;99.90;;;;;;6276840;22;20023;-90
2023/12/03 01:39:45;;;;;;;1056.65;948.95;;;-1.10;99.90;;;;;;6251479;22;20462;-90
2023/12/03 01:42:11;;;;;;;1037.45;934.38;;;-0.80;99.90;;;;;;6277170;22;20077;-91
2023/12/03 01:44:37;;;;;;;1049.05;942.55;;;-1.10;99.90;;;;;;6277002;22;20019;-89
2023/12/03 01:47:03;;;;;;;1117.35;987.97;;;-0.90;99.90;;;;;;6277514;22;20015;-90
2023/12/03 01:49:31;;;;;;;1000.60;905.60;;;-0.80;99.90;;;;;;6276984;22;20161;-89
2023/12/03 01:51:57;;;;;;;1066.38;957.70;;;-2.20;99.90;;;;;;6251888;22;20019;-91
2023/12/03 01:54:27;;;;;;;1077.75;965.35;;;-1.10;99.90;;;;;;6254076;22;20051;-90
2023/12/03 01:56:54;;;;;;;1152.53;992.70;;;-1.00;99.90;;;;;;6254320;22;20114;-89
2023/12/03 01:59:21;;;;;;;1137.35;990.22;;;-1.00;99.90;;;;;;6253810;22;20019;-90
2023/12/03 02:01:47;;;;;;;1012.95;915.15;;;-1.00;99.90;;;;;;6253919;22;20016;-90
2023/12/03 02:04:13;;;;;;;1107.80;982.42;;;-2.10;99.90;;;;;;6253961;22;20092;-90
2023/12/03 02:06:38;;;;;;;1121.93;984.00;;;-2.30;99.90;;;;;;6278905;22;20027;-90
2023/12/03 02:09:04;;;;;;;1088.13;974.60;;;-1.00;99.90;;;;;;6279621;22;20106;-91
2023/12/03 02:11:30;;;;;;;1065.70;955.63;;;-2.20;99.90;;;;;;6278768;22;20011;-90
2023/12/03 02:13:57;;;;;;;1156.40;994.55;;;-0.80;99.90;;;;;;6279458;22;20122;-90
2023/12/03 02:16:22;;;;;;;1022.60;920.88;;;-1.20;99.90;;;;;;6253975;22;20014;-91
2023/12/03 02:18:48;;;;;;;1245.45;996.85;;;-1.20;99.90;;;;;;6279127;22;20102;-90
2023/12/03 02:21:14;;;;;;;1185.05;990.28;;;-0.90;99.90;;;;;;6279344;22;20881;-91
2023/12/03 02:23:40;;;;;;;1241.53;997.92;;;-1.40;99.90;;;;;;6279282;22;20015;-90
2023/12/03 02:26:06;;;;;;;1390.07;988.95;;;-2.30;99.90;;;;;;6279162;22;20022;-90
2023/12/03 02:28:32;;;;;;;1303.45;997.50;;;-2.30;99.90;;;;;;6252727;22;20065;-91
2023/12/03 02:30:58;;;;;;;1307.90;999.90;;;-1.40;99.90;;;;;;6253270;22;20019;-91
2023/12/03 02:33:27;;;;;;;1090.00;962.08;;;-1.30;99.90;;;;;;6223814;22;20016;-90
2023/12/03 02:35:53;;;;;;;1045.90;937.78;;;-1.70;99.90;;;;;;6222771;22;20452;-90
2023/12/03 02:38:19;;;;;;;1244.75;999.90;;;-2.50;99.90;;;;;;6223709;22;20011;-91
2023/12/03 02:40:45;;;;;;;1410.07;999.90;;;-1.90;99.90;;;;;;6222776;22;20734;-90
2023/12/03 02:43:10;;;;;;;1280.82;999.90;;;-1.50;99.90;;;;;;6222899;22;20470;-90
2023/12/03 02:45:36;;;;;;;1098.45;980.55;;;-2.50;99.90;;;;;;6223166;22;20019;-90
2023/12/03 02:48:02;;;;;;;1318.40;999.90;;;-1.50;99.90;;;;;;6222493;22;20008;-90
2023/12/03 02:50:28;;;;;;;1359.18;999.90;;;-1.70;99.90;;;;;;6223039;22;20074;-89
2023/12/03 02:52:53;;;;;;;1461.72;999.90;;;-2.50;99.90;;;;;;6222912;22;20387;-90
2023/12/03 02:55:19;;;;;;;1106.32;975.03;;;-2.50;99.90;;;;;;6222931;22;20022;-90
2023/12/03 02:57:45;;;;;;;1312.00;999.90;;;-1.50;99.90;;;;;;6222650;22;20098;-90
2023/12/03 03:00:11;;;;;;;1088.20;969.00;;;-1.30;99.90;;;;;;6222660;22;20091;-90
2023/12/03 03:02:37;;;;;;;1307.70;999.90;;;-2.40;99.90;;;;;;6222568;22;20023;-90
2023/12/03 03:05:04;;;;;;;1374.20;999.38;;;-2.40;99.90;;;;;;6222183;22;20016;-90
2023/12/03 03:07:30;;;;;;;1518.57;999.90;;;-2.50;99.90;;;;;;6222299;22;20070;-89
2023/12/03 03:09:55;;;;;;;1196.20;992.95;;;-2.30;99.90;;;;;;6222593;22;20020;-89
2023/12/03 03:12:21;;;;;;;1341.07;999.90;;;-1.90;99.90;;;;;;6222061;22;20343;-89
2023/12/03 03:14:47;;;;;;;1301.45;999.90;;;-1.60;99.90;;;;;;6222521;22;20419;-90
2023/12/03 03:17:13;;;;;;;1194.07;998.63;;;-2.30;99.90;;;;;;6221691;22;20082;-89
2023/12/03 03:19:43;;;;;;;1404.95;999.90;;;-1.80;99.90;;;;;;6222261;22;20099;-89
2023/12/03 03:22:11;;;;;;;1625.47;999.90;;;-1.40;99.90;;;;;;6221896;22;20099;-89
2023/12/03 03:24:37;;;;;;;1373.43;999.70;;;-1.70;99.90;;;;;;6221852;22;20091;-88
2023/12/03 03:27:03;;;;;;;1515.50;999.90;;;-1.80;99.90;;;;;;6221893;22;20062;-89
2023/12/03 03:29:29;;;;;;;1635.05;999.90;;;-2.70;99.90;;;;;;6222590;22;20068;-89
2023/12/03 03:31:57;;;;;;;1795.65;999.90;;;-1.50;99.90;;;;;;6247136;22;20027;-88
2023/12/03 03:34:23;;;;;;;1626.68;999.90;;;-2.80;99.90;;;;;;6272251;22;20016;-88
2023/12/03 03:36:48;;;;;;;1274.38;998.78;;;-2.00;99.90;;;;;;6272752;22;20012;-88
2023/12/03 03:39:14;;;;;;;1529.43;999.90;;;-1.90;99.90;;;;;;6271883;22;20027;-88
2023/12/03 03:41:40;;;;;;;1434.63;999.90;;;-2.20;99.90;;;;;;6272457;22;20016;-88
2023/12/03 03:44:05;;;;;;;1538.38;999.90;;;-2.70;99.90;;;;;;6272308;22;20051;-88
2023/12/03 03:46:31;;;;;;;1668.25;999.90;;;-1.60;99.90;;;;;;6271121;22;20011;-88
2023/12/03 03:48:57;;;;;;;1487.47;999.90;;;-2.80;99.90;;;;;;6272355;22;20020;-88
2023/12/03 03:51:23;;;;;;;1403.75;999.90;;;-2.10;99.90;;;;;;6271845;22;20012;-88
2023/12/03 03:53:50;;;;;;;1340.00;999.90;;;-2.70;99.90;;;;;;6272290;22;20012;-89
2023/12/03 03:56:17;;;;;;;1429.20;999.90;;;-1.90;99.90;;;;;;6272489;22;20030;-88
2023/12/03 03:58:42;;;;;;;1390.65;999.90;;;-1.50;99.90;;;;;;6271123;22;20031;-89
2023/12/03 04:01:09;;;;;;;1298.88;999.90;;;-1.30;99.90;;;;;;6272351;22;20178;-89
2023/12/03 04:03:35;;;;;;;1433.25;999.90;;;-1.50;99.90;;;;;;6271745;22;20072;-88
2023/12/03 04:06:03;;;;;;;1386.70;999.90;;;-2.20;99.90;;;;;;6247027;22;20016;-87
2023/12/03 04:08:29;;;;;;;1434.20;999.90;;;-2.70;99.90;;;;;;6246570;22;20023;-89
2023/12/03 04:10:55;;;;;;;1205.32;997.15;;;-2.70;99.90;;;;;;6246869;22;20015;-89
2023/12/03 04:13:21;;;;;;;1136.25;989.13;;;-3.10;99.90;;;;;;6271240;22;20024;-89
2023/12/03 04:15:46;;;;;;;1405.70;999.90;;;-1.70;99.90;;;;;;6271994;22;20055;-89
2023/12/03 04:18:12;;;;;;;1464.65;999.90;;;-1.80;99.90;;;;;;6272662;22;20018;-89
2023/12/03 04:20:38;;;;;;;1310.18;999.90;;;-1.80;99.90;;;;;;6271941;22;20580;-89
2023/12/03 04:23:04;;;;;;;1345.93;999.90;;;-1.60;99.90;;;;;;6272667;22;20023;-89
2023/12/03 04:25:30;;;;;;;1474.30;999.90;;;-2.90;99.90;;;;;;6272453;22;20015;-89
2023/12/03 04:27:56;;;;;;;1523.05;999.90;;;-2.10;99.90;;;;;;6271642;22;20026;-89
2023/12/03 04:30:22;;;;;;;1595.03;999.90;;;-2.60;99.90;;;;;;6247002;22;20024;-89
2023/12/03 04:32:48;;;;;;;1295.88;999.90;;;-2.90;99.90;;;;;;6246195;22;20448;-88
2023/12/03 04:35:14;;;;;;;1359.32;999.90;;;-2.90;99.90;;;;;;6272162;22;20015;-89
2023/12/03 04:37:40;;;;;;;1745.93;999.90;;;-2.50;99.90;;;;;;6271919;22;20452;-89
2023/12/03 04:40:06;;;;;;;1594.10;999.90;;;-2.70;99.90;;;;;;6298297;22;20019;-89
2023/12/03 04:42:32;;;;;;;1603.90;999.90;;;-2.90;99.90;;;;;;6245882;22;20023;-89
2023/12/03 04:44:58;;;;;;;1574.63;999.90;;;-2.20;99.90;;;;;;6272589;22;20011;-89
2023/12/03 04:47:24;;;;;;;1830.97;999.90;;;-1.80;99.90;;;;;;6272608;22;20077;-89
2023/12/03 04:49:49;;;;;;;1975.15;999.90;;;-1.80;99.90;;;;;;6271560;22;20547;-89
2023/12/03 04:52:15;;;;;;;1713.13;999.90;;;-1.80;99.90;;;;;;6272424;22;20040;-90
2023/12/03 04:54:41;;;;;;;1783.03;999.90;;;-1.60;99.90;;;;;;6272453;22;20081;-89
2023/12/03 04:57:06;;;;;;;1782.65;999.90;;;-1.60;99.90;;;;;;6272652;22;20066;-91
2023/12/03 04:59:32;;;;;;;1817.10;999.90;;;-2.70;99.90;;;;;;6272342;22;20041;-90
2023/12/03 05:01:58;;;;;;;1707.93;999.90;;;-2.20;99.90;;;;;;6272546;22;20026;-90
2023/12/03 05:04:25;;;;;;;1780.35;999.90;;;-1.50;99.90;;;;;;6272177;22;20054;-91
2023/12/03 05:06:51;;;;;;;1669.05;999.90;;;-0.80;99.90;;;;;;6272706;22;20047;-91
2023/12/03 05:09:17;;;;;;;1590.65;999.90;;;-1.00;99.90;;;;;;6272497;22;20016;-92
2023/12/03 05:11:44;;;;;;;1462.85;999.90;;;-0.80;99.90;;;;;;6272861;22;20012;-92
2023/12/03 05:14:10;;;;;;;1346.60;999.28;;;-2.00;99.90;;;;;;6272745;22;20054;-92
2023/12/03 05:16:37;;;;;;;1245.15;997.78;;;-1.30;99.90;;;;;;6246671;22;20043;-92
2023/12/03 05:19:03;;;;;;;1236.65;997.45;;;-1.40;99.90;;;;;;6247840;22;20210;-91
2023/12/03 05:21:28;;;;;;;1227.32;997.65;;;-1.10;99.90;;;;;;6246450;22;20058;-92
2023/12/03 05:23:54;;;;;;;1475.57;999.90;;;-0.80;99.90;;;;;;6273041;22;20020;-92
2023/12/03 05:26:20;;;;;;;1500.55;999.90;;;-0.50;99.90;;;;;;6272959;22;20301;-92
2023/12/03 05:28:46;;;;;;;1444.95;999.90;;;-1.70;99.90;;;;;;6271530;22;20035;-92
2023/12/03 05:31:12;;;;;;;1299.50;999.90;;;-1.00;99.90;;;;;;6272440;22;20457;-92
2023/12/03 05:33:38;;;;;;;1137.80;982.60;;;-0.60;99.90;;;;;;6272302;22;20027;-93
2023/12/03 05:36:04;;;;;;;1090.13;967.35;;;-1.10;99.90;;;;;;6272799;22;20456;-93
2023/12/03 05:38:29;;;;;;;1356.53;999.90;;;-1.60;99.90;;;;;;6246626;22;20016;-93
2023/12/03 05:40:55;;;;;;;1479.15;999.90;;;-0.20;99.90;;;;;;6272430;22;20077;-93
2023/12/03 05:43:21;;;;;;;1499.75;999.90;;;-1.60;99.90;;;;;;6272775;22;20791;-93
2023/12/03 05:45:47;;;;;;;1187.18;991.47;;;-1.00;99.90;;;;;;6272219;22;20016;-93
2023/12/03 05:48:12;;;;;;;1428.80;999.90;;;-0.70;99.90;;;;;;6272590;22;20008;-93
2023/12/03 05:50:38;;;;;;;1411.32;999.90;;;-1.30;99.90;;;;;;6272738;22;20436;-93
2023/12/03 05:53:04;;;;;;;1219.60;993.22;;;0.00;99.90;;;;;;6272444;22;20023;-94
2023/12/03 05:55:30;;;;;;;1222.32;965.75;;;-1.00;99.90;;;;;;6272765;22;20737;-94
2023/12/03 05:57:55;;;;;;;1358.13;999.90;;;-1.20;99.90;;;;;;6272094;22;20012;-93
2023/12/03 06:00:21;;;;;;;1428.85;999.90;;;0.10;99.90;;;;;;6272811;22;20019;-94
2023/12/03 06:02:47;;;;;;;1515.30;999.90;;;-1.10;99.90;;;;;;6272655;22;20077;-94
2023/12/03 06:05:13;;;;;;;1291.25;994.40;;;-1.10;99.90;;;;;;6272324;22;20019;-94
2023/12/03 06:07:40;;;;;;;1483.35;999.90;;;-0.50;99.90;;;;;;6272812;22;20012;-95
2023/12/03 06:10:06;;;;;;;1455.28;999.90;;;-0.40;99.90;;;;;;6272415;22;20336;-94
2023/12/03 06:12:32;;;;;;;1309.25;999.90;;;-0.90;99.90;;;;;;6246628;22;20016;-94
2023/12/03 06:14:58;;;;;;;1183.90;986.40;;;-0.50;99.90;;;;;;6273221;22;20077;-93
2023/12/03 06:17:24;;;;;;;1221.90;988.72;;;-0.30;99.90;;;;;;6272301;22;20011;-93
2023/12/03 06:19:49;;;;;;;1183.90;951.47;;;0.40;99.90;;;;;;6272969;22;20550;-94
2023/12/03 06:22:15;;;;;;;1259.68;985.05;;;0.60;99.90;;;;;;6272293;22;20084;-94
2023/12/03 06:24:41;;;;;;;1331.90;999.90;;;0.40;99.90;;;;;;6272758;22;20038;-94
2023/12/03 06:27:07;;;;;;;1261.60;999.90;;;0.70;99.90;;;;;;6272560;22;20313;-93
2023/12/03 06:29:33;;;;;;;1321.97;999.90;;;-0.10;99.90;;;;;;6271446;22;20091;-94
2023/12/03 06:31:58;;;;;;;1271.50;999.90;;;0.60;99.90;;;;;;6272649;22;20070;-94
2023/12/03 06:34:24;;;;;;;1242.32;994.83;;;0.10;99.90;;;;;;6271999;22;20012;-94
2023/12/03 06:36:50;;;;;;;1159.95;989.85;;;-0.10;99.90;;;;;;6272474;22;20022;-93
2023/12/03 06:39:16;;;;;;;1270.53;961.25;;;0.60;99.90;;;;;;6273617;22;20058;-91
2023/12/03 06:41:42;;;;;;;1188.70;971.95;;;0.80;99.90;;;;;;6271848;22;20012;-92
2023/12/03 06:44:14;;;;;;;1171.43;937.45;;;0.30;99.90;;;;;;6273100;22;20024;-90
2023/12/03 06:46:43;;;;;;;1151.20;978.90;;;0.20;99.90;;;;;;6274441;22;20015;-96
2023/12/03 06:49:35;;;;;;;1147.25;955.60;;;-0.30;99.90;;;;;;6249150;22;20019;-91
2023/12/03 06:52:09;;;;;;;1272.80;997.03;;;-0.20;99.90;;;;;;6248118;22;20094;-94
2023/12/03 06:58:55;;;;;;;1193.70;980.80;;;-0.80;99.90;;;;;;6249162;22;20057;-95
2023/12/03 07:01:49;;;;;;;1177.85;975.85;;;0.40;99.90;;;;;;6265152;22;20011;-94
2023/12/03 07:04:15;;;;;;;;;;;-0.20;99.90;;;;;;6278629;22;20427;-93
2023/12/03 07:06:49;;;;;;;1594.13;999.90;;;-0.10;99.90;;;;;;6278660;22;19926;-96
2023/12/03 07:09:21;;;;;;;1286.35;999.80;;;0.40;99.90;;;;;;6278923;22;20019;-96
2023/12/03 07:13:07;;;;;;;1046.97;925.33;;;0.40;99.90;;;;;;6299859;22;20019;-95
2023/12/03 07:15:44;;;;;;;1126.03;972.35;;;-0.10;99.90;;;;;;6157275;22;20019;-93
2023/12/03 07:18:21;;;;;;;1046.07;934.53;;;-0.10;99.90;;;;;;6279545;22;20463;-94
2023/12/03 07:21:41;;;;;;;1135.95;972.15;;;0.10;99.90;;;;;;6307530;22;20404;-96
2023/12/03 07:24:10;;;;;;;1057.90;943.00;;;-0.10;99.90;;;;;;6251902;22;20015;-95
2023/12/03 07:26:42;;;;;;;1170.88;978.13;;;0.90;99.90;;;;;;6249442;22;20039;-93
2023/12/03 07:29:12;;;;;;;1120.07;971.33;;;-0.10;99.90;;;;;;6279373;22;20049;-96
2023/12/03 07:31:38;;;;;;;1106.18;954.97;;;-0.50;99.90;;;;;;6225296;22;20024;-95
2023/12/03 07:34:46;;;;;;;;;;;;;;;;;;;;;
2023/12/03 07:37:39;;;;;;;1045.38;930.30;;;0.00;99.90;;;;;;6196555;22;20026;-96
2023/12/03 07:40:39;;;;;;;1126.82;958.70;;;-0.60;99.90;;;;;;6226578;22;20019;-96
2023/12/03 07:47:33;;;;;;;1211.90;993.42;;;0.00;99.90;;;;;;6175246;23;20009;-96
2023/12/03 07:53:35;;;;;;;1051.32;937.85;;;0.10;99.90;;;;;;6305503;22;20108;-95
2023/12/03 08:00:28;;;;;;;1076.63;958.00;;;0.10;99.90;;;;;;6182702;22;20451;-95
2023/12/03 08:07:08;;;;;;;1035.35;925.50;;;0.10;99.90;;;;;;6130390;23;20031;-95
2023/12/03 08:10:21;;;;;;;1038.43;925.60;;;0.20;99.90;;;;;;6161665;23;20100;-95
2023/12/03 08:14:04;;;;;;;;;;;;;;;;;;;;;
2023/12/03 08:24:54;;;;;;;;;;;;;;;;;;;;;
2023/12/03 08:43:33;;;;;;;1124.65;991.17;;;0.30;99.90;;;;;;6034911;23;20058;-94
2023/12/03 08:47:12;;;;;;;1130.95;992.05;;;0.30;99.90;;;;;;5933300;24;20112;-94
2023/12/03 08:50:12;;;;;;;1086.80;969.40;;;0.30;99.90;;;;;;5999068;23;20456;-94
2023/12/03 09:00:12;;;;;;;1104.93;984.83;;;0.40;99.90;;;;;;5954211;24;20031;-94
2023/12/03 09:03:58;;;;;;;;;;;;;;;;;;;;;
2023/12/03 09:14:16;;;;;;;1095.57;977.33;;;0.30;99.90;;;;;;5977631;24;20032;-94
2023/12/03 09:20:14;;;;;;;1079.40;967.50;;;0.20;99.90;;;;;;6247287;22;20030;-93
2023/12/03 09:23:06;;;;;;;1039.05;935.65;;;0.50;99.90;;;;;;6221467;22;20374;-94
2023/12/03 09:26:25;;;;;;;1063.20;952.80;;;0.40;99.90;;;;;;6225122;22;20026;-94
2023/12/03 09:29:24;;;;;;;1044.07;937.83;;;0.70;99.90;;;;;;6220964;22;20055;-95
2023/12/03 09:32:48;;;;;;;1090.20;975.58;;;0.60;99.90;;;;;;6262241;22;20034;-94
2023/12/03 11:53:51;;;;;;;966.38;881.15;;;1.50;99.90;;;;;;6228780;23;20449;-96
2023/12/03 11:57:15;;;;;;;;;;;;;;;;;;;;;
2023/12/03 12:00:19;;;;;;;912.65;838.03;;;2.20;99.90;;;;;;6233650;22;20019;-95
2023/12/03 12:03:16;;;;;;;958.88;873.53;;;2.00;99.90;;;;;;6272513;22;20022;-95
2023/12/03 12:07:05;;;;;;;997.42;906.70;;;1.80;99.90;;;;;;6272708;22;20321;-95
2023/12/03 12:18:28;;;;;;;913.97;837.13;;;1.90;99.90;;;;;;6305734;22;20027;-95
2023/12/03 12:21:33;;;;;;;916.08;840.35;;;1.60;99.90;;;;;;6303273;22;20114;-94
2023/12/03 12:27:30;;;;;;;913.03;835.15;;;1.10;99.90;;;;;;6303558;22;20366;-96
2023/12/03 12:31:26;;;;;;;964.53;879.67;;;1.80;99.90;;;;;;6304132;22;20094;-94
2023/12/03 12:34:07;;;;;;;936.60;854.45;;;1.80;99.90;;;;;;6277816;22;20015;-94
2023/12/03 12:37:54;;;;;;;990.83;898.22;;;2.10;99.90;;;;;;6303947;22;20343;-93
2023/12/03 12:44:14;;;;;;;872.05;800.78;;;1.80;99.90;;;;;;6253250;22;20374;-95
2023/12/03 12:47:11;;;;;;;942.47;861.60;;;1.80;99.90;;;;;;6278179;22;20094;-95
2023/12/03 12:50:39;;;;;;;927.53;849.15;;;1.80;99.90;;;;;;6279121;22;20096;-94
2023/12/03 12:53:45;;;;;;;;;;;1.10;99.90;;;;;;6225141;22;20115;-95
2023/12/03 12:56:54;;;;;;;904.92;828.97;;;1.70;99.90;;;;;;6279887;22;19919;-94
2023/12/03 13:03:31;;;;;;;;;;;;;;;;;;;;;
2023/12/03 13:13:11;;;;;;;;;;;;;;;;;;;;;
2023/12/03 13:16:15;;;;;;;877.35;806.03;;;1.50;99.90;;;;;;6302722;22;20335;-95
2023/12/03 13:19:08;;;;;;;933.65;851.97;;;1.60;99.90;;;;;;6292604;22;20077;-95
2023/12/03 13:30:03;;;;;;;938.33;857.55;;;2.60;99.90;;;;;;6298933;22;20022;-95
2023/12/03 13:33:24;;;;;;;903.13;827.75;;;1.60;99.90;;;;;;6306910;22;20068;-95
2023/12/03 13:40:08;;;;;;;836.60;769.97;;;1.40;99.90;;;;;;6194359;23;20060;-95
2023/12/03 13:49:38;;;;;;;813.85;749.03;;;2.00;99.90;;;;;;6169561;23;20032;-95
2023/12/03 13:52:48;;;;;;;883.17;808.33;;;1.00;99.90;;;;;;6183118;23;20055;-96
2023/12/03 13:55:27;;;;;;;915.75;837.97;;;1.00;99.90;;;;;;6157932;23;20108;-95
2023/12/03 13:58:20;;;;;;;834.10;766.80;;;0.90;99.90;;;;;;6160025;23;20091;-96
2023/12/03 14:05:29;;;;;;;924.90;842.92;;;0.70;99.90;;;;;;6185040;23;20039;-96
2023/12/03 14:14:29;;;;;;;879.65;807.25;;;0.60;99.90;;;;;;6185434;23;20021;-94
2023/12/03 14:17:09;;;;;;;;;;;-0.10;99.90;;;;;;6164753;23;20047;-94
2023/12/03 14:20:52;;;;;;;;;;;;;;;;;;;;;
2023/12/03 14:23:30;;;;;;;971.53;876.35;;;-0.30;99.90;;;;;;6165272;23;20028;-96
2023/12/03 14:41:26;;;;;;;1023.58;916.97;;;0.10;99.90;;;;;;6150175;22;20055;-94
2023/12/03 14:54:51;;;;;;;931.97;847.55;;;-0.10;99.90;;;;;;6119798;23;20075;-96
2023/12/03 14:58:34;;;;;;;898.20;819.67;;;0.00;99.90;;;;;;6104404;23;20056;-95
2023/12/03 15:05:04;;;;;;;1015.80;915.90;;;0.00;99.90;;;;;;6151894;23;20020;-95
2023/12/03 15:08:54;;;;;;;;;;;;;;;;;;;;;
2023/12/03 15:25:51;;;;;;;1061.50;950.47;;;-0.10;99.90;;;;;;6242305;23;20051;-96
2023/12/03 15:28:49;;;;;;;1065.57;953.40;;;0.10;99.90;;;;;;6230844;22;20413;-95
2023/12/03 15:32:24;;;;;;;955.88;867.58;;;0.10;99.90;;;;;;6221253;23;20023;-95
2023/12/03 15:42:03;;;;;;;1051.22;943.13;;;0.10;99.90;;;;;;6057587;23;20044;-95
2023/12/03 15:53:43;;;;;;;;;;;;;;;;;;;;;
2023/12/03 16:02:47;;;;;;;1051.30;940.10;;;0.10;99.90;;;;;;6030423;23;20045;-95
2023/12/03 16:05:16;;;;;;;858.15;788.30;;;1.00;99.90;;;;;;5996833;23;20129;-96
2023/12/03 16:07:52;;;;;;;859.70;788.40;;;1.10;99.90;;;;;;6048273;23;20041;-96
2023/12/03 16:10:45;;;;;;;883.80;811.15;;;0.10;99.90;;;;;;6094714;23;20139;-96
2023/12/03 16:13:13;;;;;;;978.63;884.78;;;0.10;99.90;;;;;;6165858;23;20426;-96
2023/12/03 16:22:51;;;;;;;1020.47;916.22;;;0.10;99.90;;;;;;6275241;22;20023;-96
2023/12/03 16:25:21;;;;;;;954.88;867.10;;;-0.10;99.90;;;;;;6275958;22;20096;-92
2023/12/03 16:28:15;;;;;;;878.65;805.05;;;0.10;99.90;;;;;;6277719;22;20473;-93
2023/12/03 16:31:48;;;;;;;827.35;760.03;;;0.00;99.90;;;;;;6180286;22;20036;-96
2023/12/03 16:34:44;;;;;;;927.13;842.65;;;0.10;99.90;;;;;;6270771;22;20023;-96
2023/12/03 16:38:22;;;;;;;957.25;864.45;;;-0.40;99.90;;;;;;6220620;22;20019;-96
2023/12/03 16:40:52;;;;;;;945.65;857.20;;;0.10;99.90;;;;;;6291198;22;20026;-96
2023/12/03 16:43:28;;;;;;;836.58;768.58;;;0.10;99.90;;;;;;6287181;22;20455;-96
2023/12/03 16:45:54;;;;;;;983.72;890.75;;;0.10;99.90;;;;;;6279006;22;20112;-96
2023/12/03 16:48:21;;;;;;;880.00;808.30;;;0.20;99.90;;;;;;6278794;22;20023;-96
2023/12/03 16:50:51;;;;;;;890.55;816.95;;;0.20;99.90;;;;;;6282113;22;20015;-96
2023/12/03 16:57:08;;;;;;;1046.18;932.00;;;0.20;99.90;;;;;;6341127;22;20026;-96
2023/12/03 16:59:38;;;;;;;968.75;872.95;;;0.20;99.90;;;;;;6318238;22;20066;-96
2023/12/03 17:02:15;;;;;;;864.30;792.38;;;1.10;99.90;;;;;;6282003;22;20017;-96
2023/12/03 17:04:47;;;;;;;843.33;774.55;;;0.20;99.90;;;;;;6304541;22;20076;-96
2023/12/03 17:07:13;;;;;;;867.00;795.47;;;0.20;99.90;;;;;;6282313;22;20014;-96
2023/12/03 17:09:58;;;;;;;;;;;;;;;;;;;;;
2023/12/03 17:12:46;;;;;;;830.60;762.70;;;0.00;99.90;;;;;;6338060;22;20041;-94
2023/12/03 17:18:43;;;;;;;965.42;872.78;;;0.40;99.90;;;;;;6271146;22;20102;-96
2023/12/03 17:21:41;;;;;;;868.83;796.25;;;1.30;99.90;;;;;;6300548;22;20026;-96
2023/12/03 17:24:45;;;;;;;;;;;;;;;;;;;;;
2023/12/03 17:30:35;;;;;;;967.35;876.08;;;0.70;99.90;;;;;;6254689;22;20026;-86
2023/12/03 17:33:01;;;;;;;849.78;778.83;;;0.90;99.90;;;;;;6302523;22;20010;-86
2023/12/03 17:35:27;;;;;;;895.80;819.95;;;0.40;99.90;;;;;;6274761;22;20026;-85
2023/12/03 17:37:53;;;;;;;880.72;807.10;;;1.40;99.90;;;;;;6299260;22;20019;-85
2023/12/03 17:40:21;;;;;;;878.95;804.67;;;1.20;99.90;;;;;;6301493;22;20030;-86
2023/12/03 17:42:47;;;;;;;865.72;793.40;;;0.30;99.90;;;;;;6299800;22;20022;-86
2023/12/03 17:45:14;;;;;;;860.38;788.42;;;0.30;99.90;;;;;;6301724;22;20014;-87
2023/12/03 17:47:41;;;;;;;879.20;805.40;;;1.30;99.90;;;;;;6276068;22;20030;-86
2023/12/03 17:50:09;;;;;;;854.00;784.35;;;0.40;99.90;;;;;;6301409;22;20084;-86
2023/12/03 17:52:36;;;;;;;870.75;798.13;;;0.40;99.90;;;;;;6301240;22;20434;-86
2023/12/03 17:55:03;;;;;;;861.40;790.65;;;0.40;99.90;;;;;;6276086;22;20019;-86
2023/12/03 17:57:29;;;;;;;836.72;768.35;;;0.30;99.90;;;;;;6298960;22;20022;-84
2023/12/03 17:59:54;;;;;;;850.92;782.53;;;0.40;99.90;;;;;;6302015;22;20026;-85
2023/12/03 18:02:21;;;;;;;874.13;800.55;;;0.50;99.90;;;;;;6300946;22;20522;-85
2023/12/03 18:04:47;;;;;;;843.53;773.03;;;0.40;99.90;;;;;;6300941;22;20077;-87
2023/12/03 18:07:13;;;;;;;840.33;772.65;;;0.40;99.90;;;;;;6276027;22;20451;-86
2023/12/03 18:09:41;;;;;;;879.42;805.40;;;0.40;99.90;;;;;;6300056;22;20029;-86
2023/12/03 18:12:08;;;;;;;863.70;791.15;;;1.20;99.90;;;;;;6301142;22;20026;-85
2023/12/03 18:14:35;;;;;;;872.85;799.78;;;0.40;99.90;;;;;;6301365;22;20007;-85
2023/12/03 18:17:01;;;;;;;868.00;796.80;;;0.90;99.90;;;;;;6300763;22;20014;-85
2023/12/03 18:19:26;;;;;;;855.25;784.17;;;0.40;99.90;;;;;;6301366;22;20320;-86
2023/12/03 18:21:52;;;;;;;863.08;791.13;;;0.40;99.90;;;;;;6301542;22;20023;-85
2023/12/03 18:24:25;;;;;;;853.78;782.40;;;0.40;99.90;;;;;;6300892;22;20019;-87
2023/12/03 18:26:50;;;;;;;842.28;775.22;;;0.30;99.90;;;;;;6301843;22;20026;-86
2023/12/03 18:29:17;;;;;;;914.35;832.35;;;0.60;99.90;;;;;;6328901;22;20023;-85
2023/12/03 18:31:44;;;;;;;830.85;765.53;;;0.40;99.90;;;;;;6300104;22;20324;-85
2023/12/03 18:34:11;;;;;;;844.45;775.22;;;0.30;99.90;;;;;;6301904;22;20023;-85
2023/12/03 18:36:37;;;;;;;854.80;784.67;;;0.30;99.90;;;;;;6302918;22;20011;-86
2023/12/03 18:39:02;;;;;;;859.40;787.55;;;0.80;99.90;;;;;;6300846;22;20355;-84
2023/12/03 18:41:29;;;;;;;864.08;791.55;;;0.40;99.90;;;;;;6303664;22;20715;-86
2023/12/03 18:43:55;;;;;;;844.55;775.22;;;0.30;99.90;;;;;;6277164;22;20018;-84